createdAt,value
2022-09-22T00:01:52.523Z,99.90
2022-09-22T00:04:23.573Z,99.90
2022-09-22T00:06:56.370Z,99.90
2022-09-22T00:09:27.218Z,99.90
2022-09-22T00:11:58.075Z,99.90
2022-09-22T00:14:29.169Z,99.90
2022-09-22T00:17:01.501Z,99.90
2022-09-22T00:19:37.644Z,99.90
2022-09-22T00:22:08.516Z,99.90
2022-09-22T00:24:39.485Z,99.90
2022-09-22T00:27:10.313Z,99.90
2022-09-22T00:29:41.735Z,99.90
2022-09-22T00:32:13.570Z,99.90
2022-09-22T00:34:45.045Z,99.90
2022-09-22T00:37:16.486Z,99.90
2022-09-22T00:39:47.355Z,99.90
2022-09-22T00:42:19.797Z,99.90
2022-09-22T00:44:50.705Z,99.90
2022-09-22T00:47:37.584Z,99.90
2022-09-22T00:50:24.817Z,99.90
2022-09-22T00:53:11.203Z,99.90
2022-09-22T00:55:53.308Z,99.90
2022-09-22T00:58:31.917Z,99.90
2022-09-22T01:01:03.254Z,99.90
2022-09-22T01:03:39.200Z,99.90
2022-09-22T01:06:15.018Z,99.90
2022-09-22T01:08:46.356Z,99.90
2022-09-22T01:11:21.537Z,99.90
2022-09-22T01:14:13.287Z,99.90
2022-09-22T01:17:06.672Z,99.90
2022-09-22T01:20:02.536Z,99.90
2022-09-22T01:22:49.807Z,99.90
2022-09-22T01:26:00.384Z,99.90
2022-09-22T01:29:17.832Z,99.90
2022-09-22T01:32:03.103Z,99.90
2022-09-22T01:34:57.646Z,99.90
2022-09-22T01:38:10.557Z,99.90
2022-09-22T01:41:03.799Z,99.90
2022-09-22T01:43:49.177Z,99.90
2022-09-22T01:46:47.375Z,99.90
2022-09-22T01:49:20.972Z,99.90
2022-09-22T01:52:00.617Z,99.90
2022-09-22T01:54:42.834Z,99.90
2022-09-22T01:57:21.304Z,99.90
2022-09-22T02:00:01.616Z,99.90
2022-09-22T02:02:41.111Z,99.90
2022-09-22T02:05:49.594Z,99.90
2022-09-22T02:08:32.495Z,99.90
2022-09-22T02:11:11.763Z,99.90
2022-09-22T02:13:44.641Z,99.90
2022-09-22T02:16:19.815Z,99.90
2022-09-22T02:19:13.537Z,99.90
2022-09-22T02:21:47.606Z,99.90
2022-09-22T02:24:40.866Z,99.90
2022-09-22T02:27:26.338Z,99.90
2022-09-22T02:30:04.950Z,99.90
2022-09-22T02:32:39.848Z,99.90
2022-09-22T02:35:10.989Z,99.90
2022-09-22T02:38:03.295Z,99.90
2022-09-22T02:40:52.722Z,99.90
2022-09-22T02:43:46.223Z,99.90
2022-09-22T02:46:41.564Z,99.90
2022-09-22T02:49:17.642Z,99.90
2022-09-22T02:51:53.028Z,99.90
2022-09-22T02:54:24.133Z,99.90
2022-09-22T02:56:55.188Z,99.90
2022-09-22T02:59:26.082Z,99.90
2022-09-22T03:01:57.016Z,99.90
2022-09-22T03:04:28.220Z,99.90
2022-09-22T03:06:59.082Z,99.90
2022-09-22T03:09:29.960Z,99.90
2022-09-22T03:12:01.096Z,99.90
2022-09-22T03:14:31.970Z,99.90
2022-09-22T03:17:02.824Z,99.90
2022-09-22T03:19:33.723Z,99.90
2022-09-22T03:22:04.803Z,99.90
2022-09-22T03:24:35.667Z,99.90
2022-09-22T03:27:06.521Z,99.90
2022-09-22T03:29:37.429Z,99.90
2022-09-22T03:32:08.262Z,99.90
2022-09-22T03:34:39.131Z,99.90
2022-09-22T03:37:10.092Z,99.90
2022-09-22T03:39:40.992Z,99.90
2022-09-22T03:42:11.883Z,99.90
2022-09-22T03:44:42.800Z,99.90
2022-09-22T03:47:13.634Z,99.90
2022-09-22T03:49:44.507Z,99.90
2022-09-22T03:52:15.391Z,99.90
2022-09-22T03:54:46.262Z,99.90
2022-09-22T03:57:17.123Z,99.90
2022-09-22T03:59:48.042Z,99.90
2022-09-22T04:02:18.960Z,99.90
2022-09-22T04:04:49.890Z,99.90
2022-09-22T04:07:20.826Z,99.90
2022-09-22T04:09:51.728Z,99.90
2022-09-22T04:12:22.632Z,99.90
2022-09-22T04:14:53.553Z,99.90
2022-09-22T04:17:24.560Z,99.90
2022-09-22T04:19:55.530Z,99.90
2022-09-22T04:22:26.366Z,99.90
2022-09-22T04:24:57.913Z,99.90
2022-09-22T04:27:28.790Z,99.90
2022-09-22T04:30:02.024Z,99.90
2022-09-22T04:32:33.999Z,99.90
2022-09-22T04:35:06.157Z,99.90
2022-09-22T04:37:37.205Z,99.90
2022-09-22T04:40:12.251Z,99.90
2022-09-22T04:42:46.682Z,99.90
2022-09-22T04:45:17.832Z,99.90
2022-09-22T04:47:51.836Z,99.90
2022-09-22T04:50:23.470Z,99.90
2022-09-22T04:52:56.268Z,99.90
2022-09-22T04:55:27.757Z,99.90
2022-09-22T04:57:58.818Z,99.90
2022-09-22T05:00:30.705Z,99.90
2022-09-22T05:03:03.506Z,99.90
2022-09-22T05:05:35.082Z,99.90
2022-09-22T05:08:06.104Z,99.90
2022-09-22T05:10:37.297Z,99.90
2022-09-22T05:13:08.516Z,99.90
2022-09-22T05:15:42.450Z,99.90
2022-09-22T05:18:13.326Z,99.90
2022-09-22T05:20:45.468Z,99.90
2022-09-22T05:23:16.432Z,99.90
2022-09-22T05:25:47.280Z,99.90
2022-09-22T05:28:18.141Z,99.90
2022-09-22T05:30:52.413Z,99.90
2022-09-22T05:33:23.269Z,99.90
2022-09-22T05:35:54.274Z,99.90
2022-09-22T05:38:25.135Z,99.90
2022-09-22T05:40:55.957Z,99.90
2022-09-22T05:43:26.817Z,99.90
2022-09-22T05:45:57.846Z,99.90
2022-09-22T05:48:31.341Z,99.90
2022-09-22T05:51:02.677Z,99.90
2022-09-22T05:53:33.586Z,99.90
2022-09-22T05:56:04.776Z,99.90
2022-09-22T05:58:35.679Z,99.90
2022-09-22T06:01:06.616Z,99.90
2022-09-22T06:03:37.573Z,99.90
2022-09-22T06:06:08.419Z,99.90
2022-09-22T06:08:39.298Z,99.90
2022-09-22T06:11:10.180Z,99.90
2022-09-22T06:13:41.037Z,99.90
2022-09-22T06:16:11.967Z,99.90
2022-09-22T06:18:48.454Z,99.90
2022-09-22T06:21:19.288Z,99.90
2022-09-22T06:23:51.670Z,99.90
2022-09-22T06:26:22.501Z,99.90
2022-09-22T06:28:53.399Z,99.90
2022-09-22T06:31:24.585Z,99.90
2022-09-22T06:33:55.685Z,99.90
2022-09-22T06:36:32.324Z,99.90
2022-09-22T06:39:05.256Z,99.90
2022-09-22T06:41:36.310Z,99.90
2022-09-22T06:44:08.135Z,99.90
2022-09-22T06:46:39.332Z,99.90
2022-09-22T06:49:10.200Z,99.90
2022-09-22T06:51:41.161Z,99.90
2022-09-22T06:54:12.058Z,99.90
2022-09-22T06:56:43.415Z,99.90
2022-09-22T06:59:14.498Z,99.90
2022-09-22T07:01:45.910Z,99.90
2022-09-22T07:04:17.753Z,99.90
2022-09-22T07:06:50.576Z,99.90
2022-09-22T07:09:21.418Z,99.90
2022-09-22T07:11:52.345Z,99.90
2022-09-22T07:14:25.441Z,99.90
2022-09-22T07:16:56.305Z,99.90
2022-09-22T07:19:27.167Z,99.90
2022-09-22T07:21:58.812Z,99.90
2022-09-22T07:24:29.655Z,99.90
2022-09-22T07:27:04.264Z,99.90
2022-09-22T07:29:35.160Z,99.90
2022-09-22T07:32:06.383Z,99.90
2022-09-22T07:34:37.300Z,99.90
2022-09-22T07:37:09.067Z,99.90
2022-09-22T07:39:40.169Z,99.90
2022-09-22T07:42:12.319Z,99.90
2022-09-22T07:45:01.780Z,99.90
2022-09-22T07:47:51.139Z,99.90
2022-09-22T07:50:22.712Z,99.90
2022-09-22T07:52:54.360Z,99.90
2022-09-22T07:55:25.670Z,99.90
2022-09-22T07:57:58.817Z,99.90
2022-09-22T08:00:33.673Z,99.90
2022-09-22T08:03:04.666Z,99.90
2022-09-22T08:05:35.557Z,99.90
2022-09-22T08:08:08.102Z,99.90
2022-09-22T08:10:39.237Z,99.90
2022-09-22T08:13:10.194Z,99.90
2022-09-22T08:15:42.359Z,99.90
2022-09-22T08:18:14.371Z,99.90
2022-09-22T08:20:45.291Z,99.90
2022-09-22T08:23:16.141Z,99.90
2022-09-22T08:25:47.007Z,99.90
2022-09-22T08:28:17.927Z,99.90
2022-09-22T08:30:49.155Z,99.90
2022-09-22T08:33:20.015Z,99.90
2022-09-22T08:36:03.622Z,99.90
2022-09-22T08:38:34.989Z,99.90
2022-09-22T08:41:27.605Z,99.90
2022-09-22T08:44:04.562Z,99.90
2022-09-22T08:46:44.358Z,99.90
2022-09-22T08:49:58.329Z,99.90
2022-09-22T08:52:48.436Z,99.90
2022-09-22T08:55:25.269Z,99.90
2022-09-22T08:58:12.536Z,99.90
2022-09-22T09:00:54.001Z,99.90
2022-09-22T09:03:56.076Z,99.90
2022-09-22T09:06:55.249Z,99.90
2022-09-22T09:10:08.040Z,99.90
2022-09-22T09:12:45.379Z,99.90
2022-09-22T09:15:42.568Z,99.90
2022-09-22T09:18:21.030Z,99.90
2022-09-22T09:20:52.382Z,99.90
2022-09-22T09:26:23.632Z,99.90
2022-09-22T09:29:03.906Z,99.90
2022-09-22T09:31:46.181Z,99.90
2022-09-22T09:34:20.377Z,99.90
2022-09-22T09:37:01.630Z,99.90
2022-09-22T09:39:37.157Z,99.90
2022-09-22T09:42:24.926Z,99.90
2022-09-22T09:45:02.456Z,99.90
2022-09-22T09:48:26.354Z,99.90
2022-09-22T09:51:03.777Z,99.90
2022-09-22T09:53:44.826Z,99.90
2022-09-22T09:56:28.924Z,99.90
2022-09-22T09:59:21.742Z,99.90
2022-09-22T10:01:54.472Z,99.90
2022-09-22T10:04:32.826Z,99.90
2022-09-22T10:07:17.128Z,99.90
2022-09-22T10:09:50.792Z,99.90
2022-09-22T10:12:34.855Z,99.90
2022-09-22T10:15:25.632Z,99.90
2022-09-22T10:17:56.638Z,99.90
2022-09-22T10:20:34.026Z,99.90
2022-09-22T10:23:23.455Z,99.50
2022-09-22T10:26:27.388Z,99.00
2022-09-22T10:29:12.247Z,99.40
2022-09-22T10:32:11.923Z,99.20
2022-09-22T10:34:51.546Z,99.10
2022-09-22T10:37:27.129Z,99.10
2022-09-22T10:40:02.013Z,98.30
2022-09-22T10:42:40.957Z,98.40
2022-09-22T10:45:12.542Z,97.80
2022-09-22T10:48:13.091Z,97.00
2022-09-22T10:51:16.406Z,97.20
2022-09-22T10:54:27.551Z,94.80
2022-09-22T10:57:09.399Z,92.30
2022-09-22T10:59:56.407Z,91.80
2022-09-22T11:02:49.734Z,90.70
2022-09-22T11:06:06.359Z,90.20
2022-09-22T11:09:28.016Z,88.80
2022-09-22T11:12:17.554Z,90.40
2022-09-22T11:15:20.307Z,87.20
2022-09-22T11:18:27.182Z,89.30
2022-09-22T11:21:13.769Z,86.70
2022-09-22T11:24:18.060Z,85.90
2022-09-22T11:26:57.236Z,86.80
2022-09-22T11:29:52.487Z,84.80
2022-09-22T11:32:45.405Z,85.80
2022-09-22T11:36:02.869Z,85.60
2022-09-22T11:39:21.206Z,83.50
2022-09-22T11:42:21.546Z,83.00
2022-09-22T11:45:10.497Z,82.30
2022-09-22T11:48:11.430Z,82.40
2022-09-22T11:51:42.828Z,84.20
2022-09-22T11:54:47.043Z,81.70
2022-09-22T11:57:23.845Z,82.10
2022-09-22T12:00:13.144Z,82.10
2022-09-22T12:02:54.868Z,83.40
2022-09-22T12:05:41.652Z,84.30
2022-09-22T12:08:23.683Z,83.30
2022-09-22T12:10:55.860Z,80.60
2022-09-22T12:13:31.000Z,82.80
2022-09-22T12:16:55.456Z,82.00
2022-09-22T12:19:56.736Z,80.60
2022-09-22T12:23:10.056Z,80.60
2022-09-22T12:26:12.638Z,83.00
2022-09-22T12:28:48.439Z,80.70
2022-09-22T12:31:20.884Z,80.20
2022-09-22T12:33:55.142Z,79.70
2022-09-22T12:36:32.637Z,79.60
2022-09-22T12:39:19.199Z,80.20
2022-09-22T12:42:14.804Z,80.00
2022-09-22T12:44:52.124Z,79.30
2022-09-22T12:47:48.762Z,78.80
2022-09-22T12:50:42.129Z,77.90
2022-09-22T12:53:22.271Z,77.00
2022-09-22T12:55:57.421Z,78.90
2022-09-22T12:58:31.278Z,79.00
2022-09-22T13:01:32.513Z,79.20
2022-09-22T13:04:17.011Z,76.90
2022-09-22T13:06:47.780Z,76.00
2022-09-22T13:09:25.909Z,73.20
2022-09-22T13:12:12.054Z,73.50
2022-09-22T13:15:08.999Z,74.90
2022-09-22T13:17:49.601Z,73.50
2022-09-22T13:20:29.779Z,74.50
2022-09-22T13:23:18.987Z,72.40
2022-09-22T13:25:51.826Z,72.20
2022-09-22T13:28:26.064Z,72.90
2022-09-22T13:31:09.832Z,71.50
2022-09-22T13:33:41.292Z,72.20
2022-09-22T13:36:18.946Z,72.60
2022-09-22T13:38:55.284Z,70.10
2022-09-22T13:41:34.353Z,70.30
2022-09-22T13:44:11.821Z,70.40
2022-09-22T13:46:48.274Z,68.60
2022-09-22T13:49:37.961Z,69.50
2022-09-22T13:52:16.419Z,68.40
2022-09-22T13:54:55.235Z,68.40
2022-09-22T13:57:32.092Z,67.40
2022-09-22T14:00:05.943Z,66.60
2022-09-22T14:02:45.330Z,67.70
2022-09-22T14:05:28.185Z,67.60
2022-09-22T14:08:12.970Z,66.60
2022-09-22T14:10:47.145Z,67.60
2022-09-22T14:13:52.852Z,66.80
2022-09-22T14:17:14.292Z,66.30
2022-09-22T14:19:55.698Z,67.60
2022-09-22T14:22:34.326Z,67.80
2022-09-22T14:25:06.594Z,68.70
2022-09-22T14:27:59.800Z,67.30
2022-09-22T14:30:31.397Z,64.60
2022-09-22T14:33:04.081Z,66.30
2022-09-22T14:35:37.273Z,66.60
2022-09-22T14:38:14.578Z,64.30
2022-09-22T14:40:58.708Z,64.70
2022-09-22T14:43:42.249Z,66.10
2022-09-22T14:46:41.420Z,65.50
2022-09-22T14:49:43.531Z,65.40
2022-09-22T14:52:30.892Z,64.20
2022-09-22T14:55:13.918Z,63.80
2022-09-22T14:57:48.537Z,64.00
2022-09-22T15:00:38.419Z,63.20
2022-09-22T15:03:27.140Z,63.90
2022-09-22T15:06:11.524Z,64.00
2022-09-22T15:08:48.825Z,63.00
2022-09-22T15:11:19.840Z,65.70
2022-09-22T15:13:57.032Z,63.20
2022-09-22T15:16:43.392Z,63.60
2022-09-22T15:19:14.407Z,63.90
2022-09-22T15:21:47.432Z,65.40
2022-09-22T15:24:26.993Z,63.80
2022-09-22T15:27:00.179Z,64.10
2022-09-22T15:29:32.398Z,67.10
2022-09-22T15:32:03.845Z,65.50
2022-09-22T15:34:34.768Z,66.50
2022-09-22T15:37:05.713Z,65.80
2022-09-22T15:39:37.028Z,65.80
2022-09-22T15:42:11.619Z,65.30
2022-09-22T15:44:43.126Z,65.30
2022-09-22T15:47:16.602Z,64.80
2022-09-22T15:49:47.579Z,64.90
2022-09-22T15:52:18.403Z,64.90
2022-09-22T15:54:49.252Z,66.10
2022-09-22T15:57:20.094Z,66.00
2022-09-22T15:59:51.657Z,67.30
2022-09-22T16:02:23.485Z,66.30
2022-09-22T16:04:55.681Z,66.40
2022-09-22T16:07:26.577Z,67.00
2022-09-22T16:09:57.398Z,67.40
2022-09-22T16:12:28.466Z,68.30
2022-09-22T16:14:59.436Z,67.20
2022-09-22T16:17:30.307Z,67.20
2022-09-22T16:20:01.920Z,67.50
2022-09-22T16:22:33.901Z,68.50
2022-09-22T16:25:06.122Z,67.70
2022-09-22T16:27:39.195Z,68.80
2022-09-22T16:30:10.792Z,68.60
2022-09-22T16:32:43.440Z,69.70
2022-09-22T16:35:14.330Z,68.50
2022-09-22T16:37:45.890Z,67.30
2022-09-22T16:40:16.864Z,69.30
2022-09-22T16:42:48.679Z,69.00
2022-09-22T16:45:39.480Z,69.60
2022-09-22T16:48:10.420Z,70.60
2022-09-22T16:50:43.429Z,71.50
2022-09-22T16:53:14.342Z,71.70
2022-09-22T16:55:48.785Z,71.70
2022-09-22T16:58:19.978Z,72.80
2022-09-22T17:00:50.862Z,73.40
2022-09-22T17:03:22.499Z,74.60
2022-09-22T17:06:06.666Z,76.60
2022-09-22T17:08:44.337Z,76.90
2022-09-22T17:11:15.391Z,78.30
2022-09-22T17:13:47.475Z,77.90
2022-09-22T17:16:27.532Z,79.20
2022-09-22T17:19:08.139Z,79.70
2022-09-22T17:21:40.245Z,81.50
2022-09-22T17:24:11.174Z,81.40
2022-09-22T17:26:47.437Z,82.30
2022-09-22T17:29:25.202Z,82.60
2022-09-22T17:32:04.386Z,83.60
2022-09-22T17:34:38.342Z,84.30
2022-09-22T17:37:14.116Z,85.00
2022-09-22T17:39:45.053Z,86.10
2022-09-22T17:42:16.158Z,85.80
2022-09-22T17:44:47.239Z,86.30
2022-09-22T17:47:36.728Z,86.90
2022-09-22T17:50:30.662Z,86.90
2022-09-22T17:53:19.830Z,87.50
2022-09-22T17:55:52.723Z,87.40
2022-09-22T17:58:23.922Z,88.40
2022-09-22T18:00:55.344Z,89.60
2022-09-22T18:03:26.520Z,90.40
2022-09-22T18:05:58.359Z,90.00
2022-09-22T18:08:29.276Z,90.10
2022-09-22T18:11:01.228Z,90.70
2022-09-22T18:13:35.151Z,90.80
2022-09-22T18:16:23.213Z,90.70
2022-09-22T18:18:54.121Z,90.80
2022-09-22T18:21:24.956Z,91.30
2022-09-22T18:23:55.808Z,91.60
2022-09-22T18:26:38.283Z,91.90
2022-09-22T18:29:10.123Z,91.80
2022-09-22T18:31:42.070Z,92.70
2022-09-22T18:34:13.055Z,92.80
2022-09-22T18:36:45.461Z,93.30
2022-09-22T18:39:17.442Z,93.30
2022-09-22T18:41:49.903Z,99.90
2022-09-22T18:44:29.152Z,94.50
2022-09-22T18:47:02.190Z,94.50
2022-09-22T18:49:36.658Z,94.60
2022-09-22T18:52:10.173Z,94.50
2022-09-22T18:54:42.991Z,95.00
2022-09-22T18:57:13.947Z,95.50
2022-09-22T18:59:44.803Z,95.30
2022-09-22T19:02:15.821Z,96.00
2022-09-22T19:04:46.866Z,96.10
2022-09-22T19:07:41.113Z,96.50
2022-09-22T19:10:18.876Z,96.90
2022-09-22T19:12:50.182Z,97.20
2022-09-22T19:15:21.147Z,97.90
2022-09-22T19:17:52.095Z,98.10
2022-09-22T19:20:24.119Z,98.50
2022-09-22T19:22:55.461Z,99.00
2022-09-22T19:25:26.811Z,99.10
2022-09-22T19:27:57.778Z,99.20
2022-09-22T19:30:31.528Z,99.80
2022-09-22T19:33:02.724Z,99.90
2022-09-22T19:35:38.429Z,99.90
2022-09-22T19:38:10.358Z,99.90
2022-09-22T19:40:41.408Z,99.90
2022-09-22T19:43:12.510Z,99.90
2022-09-22T19:45:43.723Z,99.90
2022-09-22T19:48:15.997Z,99.90
2022-09-22T19:50:47.256Z,99.90
2022-09-22T19:53:18.244Z,99.90
2022-09-22T19:55:49.167Z,99.90
2022-09-22T19:58:20.051Z,99.90
2022-09-22T20:00:52.326Z,99.90
2022-09-22T20:03:23.233Z,99.90
2022-09-22T20:05:54.150Z,99.90
2022-09-22T20:08:27.100Z,99.90
2022-09-22T20:11:16.347Z,99.90
2022-09-22T20:14:07.807Z,99.90
2022-09-22T20:16:38.749Z,99.90
2022-09-22T20:19:10.242Z,99.90
2022-09-22T20:21:45.628Z,99.90
2022-09-22T20:24:19.971Z,99.90
2022-09-22T20:26:52.936Z,99.90
2022-09-22T20:29:24.205Z,99.90
2022-09-22T20:31:55.252Z,99.90
2022-09-22T20:34:26.117Z,99.90
2022-09-22T20:36:57.202Z,99.90
2022-09-22T20:39:28.061Z,99.90
2022-09-22T20:41:59.777Z,99.90
2022-09-22T20:44:31.294Z,99.90
2022-09-22T20:47:02.614Z,99.90
2022-09-22T20:49:35.301Z,99.90
2022-09-22T20:52:06.231Z,99.90
2022-09-22T20:54:37.105Z,99.90
2022-09-22T20:57:08.034Z,99.90
2022-09-22T20:59:39.202Z,99.90
2022-09-22T21:02:11.963Z,99.90
2022-09-22T21:04:42.915Z,99.90
2022-09-22T21:07:13.827Z,99.90
2022-09-22T21:10:03.959Z,99.90
2022-09-22T21:12:34.884Z,99.90
2022-09-22T21:15:06.419Z,99.90
2022-09-22T21:17:40.981Z,99.90
2022-09-22T21:20:14.408Z,99.90
2022-09-22T21:22:45.350Z,99.90
2022-09-22T21:25:16.332Z,99.90
2022-09-22T21:27:47.252Z,99.90
2022-09-22T21:30:18.259Z,99.90
2022-09-22T21:32:49.099Z,99.90
2022-09-22T21:35:20.015Z,99.90
2022-09-22T21:37:55.087Z,99.90
2022-09-22T21:40:26.083Z,99.90
2022-09-22T21:42:59.783Z,99.90
2022-09-22T21:45:30.693Z,99.90
2022-09-22T21:48:01.827Z,99.90
2022-09-22T21:50:32.772Z,99.90
2022-09-22T21:53:03.604Z,99.90
2022-09-22T21:55:34.550Z,99.90
2022-09-22T21:58:05.437Z,99.90
2022-09-22T22:00:51.223Z,99.90
2022-09-22T22:03:32.815Z,99.90
2022-09-22T22:06:19.489Z,99.90
2022-09-22T22:09:01.516Z,99.90
2022-09-22T22:11:37.497Z,99.90
2022-09-22T22:14:12.057Z,99.90
2022-09-22T22:16:46.267Z,99.90
2022-09-22T22:19:21.010Z,99.90
2022-09-22T22:21:52.489Z,99.90
2022-09-22T22:24:40.882Z,99.90
2022-09-22T22:27:13.666Z,99.90
2022-09-22T22:29:45.989Z,99.90
2022-09-22T22:32:16.858Z,99.90
2022-09-22T22:34:47.993Z,99.90
2022-09-22T22:37:18.990Z,99.90
2022-09-22T22:39:49.949Z,99.90
2022-09-22T22:42:20.918Z,99.90
2022-09-22T22:44:51.953Z,99.90
2022-09-22T22:47:22.863Z,99.90
2022-09-22T22:49:53.814Z,99.90
2022-09-22T22:52:24.685Z,99.90
2022-09-22T22:54:55.618Z,99.90
2022-09-22T22:57:27.583Z,99.90
2022-09-22T22:59:58.529Z,99.90
2022-09-22T23:02:30.818Z,99.90
2022-09-22T23:05:01.813Z,99.90
2022-09-22T23:07:32.695Z,99.90
2022-09-22T23:10:06.913Z,99.90
2022-09-22T23:12:41.040Z,99.90
2022-09-22T23:15:12.390Z,99.90
2022-09-22T23:17:43.445Z,99.90
2022-09-22T23:20:15.451Z,99.90
2022-09-22T23:22:46.439Z,99.90
2022-09-22T23:25:17.840Z,99.90
2022-09-22T23:27:48.751Z,99.90
2022-09-22T23:30:19.860Z,99.90
2022-09-22T23:32:50.896Z,99.90
2022-09-22T23:35:21.727Z,99.90
2022-09-22T23:37:52.534Z,99.90
2022-09-22T23:40:23.587Z,99.90
2022-09-22T23:42:54.538Z,99.90
2022-09-22T23:45:26.370Z,99.90
2022-09-22T23:47:57.356Z,99.90
2022-09-22T23:50:30.587Z,99.90
2022-09-22T23:53:01.563Z,99.90
2022-09-22T23:55:33.055Z,99.90
2022-09-22T23:58:05.223Z,99.90
